Washburn, ME (04786)

4:13 PM EST on February 10, 2016 (GMT -0500)
Micmac Environmental | | Change Station
CLOSE
Current Station
Personal Weather Station
Location: Caribou, ME
Elevation: 634 ft
Nearby Weather Stations

Elev 634 ft 46.78 °N, 67.99 °W | Updated 48 seconds ago

Overcast
Overcast
23.5 °F
Feels Like 24 °F
N
2.0
Wind Variable Wind from SE
Gusts 6.0 mph

Today
High -- | Low -- °F
--% Chance of Precip.
Yesterday
High -- | Low -- °F
Precip. -- in
Pressure 29.63 in
Visibility 10.0 miles
Clouds Overcast 2400 ft
Windchill 24 °F
Dew Point 21 °F
Humidity 89%
Rainfall 0.00 in
Snow Depth Not available.
6:45 AM 4:48 PM
Waxing Crescent, 7% visible
METAR KPQI 102056Z AUTO 12004KT 10SM OVC024 M04/M08 A2950 RMK AO2 SNE40 SLP033 P0000 60000 T10391083 55002 FZRANO
Pressure 29.63 in
Visibility 10.0 miles
Clouds Overcast 2400 ft
Windchill 24 °F
Dew Point 21 °F
Humidity 89%
Rainfall 0.00 in
Snow Depth Not available.
6:45 AM 4:48 PM
Waxing Crescent, 7% visible
METAR KPQI 102056Z AUTO 12004KT 10SM OVC024 M04/M08 A2950 RMK AO2 SNE40 SLP033 P0000 60000 T10391083 55002 FZRANO

10-Day Weather Forecast

Almanac

Astronomy

Feb. 10, 2016 Rise Set
Actual Time
Civil Twilight
Nautical Twilight
Astronomical Twilight
Moon
Length of Visible Light
Length of Day
Tomorrow will be .
, % of the Moon is Illuminated

Today's Extremes

State Highs State Lows

Community

WunderPhotos

Upload Photos

1,891,949 photos uploaded!

WunderBlog® & News

Nearby

Air Quality

  Air Quality AQ Index Pollutant
Not available.

Snow Depth

Station Depth Elevation

Earthquake Activity

City Distance Mag. Time & Date
Minimum magnitude displayed is 2.5.

Coastal Water Temperatures

Place Temperature

Stations

Nearby Weather Stations

Station Location Temp. Windchill Dew Point Humidity Wind Precip. Elev Updated Type
                   

Watches & Warnings

There are currently no watches in effect.